Terminal Aerodrome Forecast
Issued by NWS Denver/Boulder, CO

Home | Current Version | Previous Version | Text Only | Print | Product List | Glossary On
Versions: 1 2 3 4 5 6 7 8 9 10 11 12 13 14 15 16 17 18 19 20 21 22 23 24 25 26 27 28 29 30 31 32 33 34 35 36 37 38 39 40 41 42 43 44 45 46 47 48 49 50
000
FTUS45 KBOU 192339
TAFDEN
TAF
KDEN 192339Z 2000/2106 01016G26KT P6SM SCT045 BKN070
     FM200100 34014G20KT P6SM SCT040 BKN060
     FM200300 04008KT P6SM BKN050 BKN100
     FM200600 02007KT P6SM VCSH SCT020 OVC030
      TEMPO 2008/2012 1SM -SHSN OVC015
     FM201500 14007KT P6SM BKN040 OVC080
     FM202100 07006KT P6SM SCT050 BKN100
     FM210200 18010KT P6SM SCT060 BKN120=

USA.gov is the U.S. government's official web portal to all federal, state and local government web resources and services.